Votkinsk, Russia
Current Conditions -  °F | °C
As of 7:00 PM on Thursday 30 Oct 2014 (Local Time) from USPP Reporting Station
Broken Clouds Broken Clouds  
Wind Chill: 28°   Ceiling: 18000
Heat Index: 36°   Visibility: 6mi
Dew Point: 34°   Wind: 11mph
Humidity: 93%   Direction: 230°SW
Pressure: 30.09"   Gusts: NA
Location:  57.04°N, 53.99°E
Report Text: USPP 301500Z 23005MPS 9000 BKN180 02/01 Q1019 21090060 NOSIGRMK QFE753/1004
Loading
Personal Weather Stations






























Interactive Weather Map
Tropical Storm Tracking
New forecast layout! Learn more

10-Day Weather Forecast

Advertisements
Track Severe Weather on mobile